Time;durP1;ratioP1;P1;durP2;ratioP2;P2;SDS_P1;SDS_P2;PMS_P1;PMS_P2;Temp;Humidity;BMP_temperature;BMP_pressure;BME280_temperature;BME280_humidity;BME280_pressure;Samples;Min_cycle;Max_cycle;Signal;HPM_P1;HPM_P2
2022/05/08 00:02:18;;;;;;;24.63;8.95;;;;;;;11.95;58.46;102887.25;5190082;28;23038;-48
2022/05/08 00:04:53;;;;;;;30.08;8.75;;;;;;;11.95;58.40;102885.47;5209621;28;20500;-48
2022/05/08 00:07:25;;;;;;;27.38;8.20;;;;;;;11.90;58.44;102886.75;5199463;28;20417;-47
2022/05/08 00:09:57;;;;;;;26.80;8.35;;;;;;;11.87;58.64;102890.47;5208934;28;20464;-42
2022/05/08 00:12:30;;;;;;;27.42;9.55;;;;;;;11.80;58.43;102898.88;5205916;28;20504;-50
2022/05/08 00:15:02;;;;;;;43.17;19.08;;;;;;;11.70;58.73;102890.75;5208903;28;20789;-47
2022/05/08 00:18:18;;;;;;;47.65;18.83;;;;;;;11.67;58.83;102891.81;5200547;28;20449;-49
2022/05/08 00:20:52;;;;;;;35.08;12.75;;;;;;;11.63;58.85;102895.63;5209025;28;20487;-47
2022/05/08 00:23:25;;;;;;;28.73;10.70;;;;;;;11.39;58.98;102853.19;5206506;28;20508;-49
2022/05/08 00:25:57;;;;;;;33.15;9.48;;;;;;;11.56;58.88;102882.94;5207505;28;20414;-49
2022/05/08 00:28:30;;;;;;;29.63;8.73;;;;;;;11.53;58.89;102884.00;5202610;28;20485;-47
2022/05/08 00:31:02;;;;;;;25.92;8.63;;;;;;;11.50;59.07;102890.34;5208611;28;20413;-48
2022/05/08 00:33:34;;;;;;;27.63;7.47;;;;;;;11.53;59.11;102892.78;5209193;28;20410;-49
2022/05/08 00:36:09;;;;;;;37.20;8.85;;;;;;;11.24;59.05;102857.75;5198456;28;20496;-51
2022/05/08 00:38:41;;;;;;;24.52;7.53;;;;;;;11.42;59.20;102897.94;5191688;28;20413;-51
2022/05/08 00:41:16;;;;;;;28.20;7.63;;;;;;;11.48;59.20;102899.34;5208637;28;20529;-47
2022/05/08 00:43:49;;;;;;;26.52;8.05;;;;;;;11.46;59.12;102907.38;5208433;28;20405;-50
2022/05/08 00:46:21;;;;;;;30.08;7.53;;;;;;;11.44;59.18;102892.56;5209773;28;20484;-51
2022/05/08 00:48:54;;;;;;;26.23;6.88;;;;;;;11.37;59.17;102913.31;5198077;28;20777;-49
2022/05/08 00:51:28;;;;;;;24.65;6.85;;;;;;;11.33;59.25;102893.28;5207825;28;20424;-48
2022/05/08 00:54:04;;;;;;;28.13;6.95;;;;;;;11.15;59.19;102870.72;5182482;28;20423;-46
2022/05/08 00:56:36;;;;;;;26.47;6.70;;;;;;;11.20;59.44;102897.72;5197755;28;20405;-47
2022/05/08 00:59:10;;;;;;;31.77;7.40;;;;;;;11.15;59.56;102895.41;5208076;28;20456;-47
2022/05/08 01:01:42;;;;;;;36.58;8.50;;;;;;;11.18;59.36;102902.25;5197469;28;20417;-47
2022/05/08 01:04:14;;;;;;;26.58;6.18;;;;;;;11.16;59.32;102886.50;5198204;28;20957;-45
2022/05/08 01:06:48;;;;;;;45.78;8.70;;;;;;;11.14;59.25;102898.13;5189264;28;20454;-48
2022/05/08 01:09:21;;;;;;;30.88;7.43;;;;;;;10.97;59.39;102863.09;5190495;28;20474;-48
2022/05/08 01:11:54;;;;;;;32.05;6.90;;;;;;;11.12;59.38;102884.16;5191348;28;20427;-50
2022/05/08 01:14:26;;;;;;;32.90;7.83;;;;;;;11.02;59.41;102873.34;5191138;28;20535;-49
2022/05/08 01:16:58;;;;;;;35.47;7.13;;;;;;;10.96;59.56;102879.91;5184008;28;20514;-47
2022/05/08 01:19:31;;;;;;;30.77;7.75;;;;;;;10.91;59.65;102874.09;5193855;28;20881;-48
2022/05/08 01:22:06;;;;;;;32.05;7.05;;;;;;;10.89;59.67;102889.19;5188050;28;20501;-46
2022/05/08 01:24:39;;;;;;;32.28;7.63;;;;;;;10.83;59.60;102876.38;5187182;28;20437;-49
2022/05/08 01:27:11;;;;;;;28.73;7.63;;;;;;;10.85;59.58;102861.28;5187693;28;20427;-50
2022/05/08 01:29:44;;;;;;;25.15;6.63;;;;;;;10.88;59.54;102876.09;5190438;28;20425;-52
2022/05/08 01:32:17;;;;;;;31.83;7.43;;;;;;;10.82;59.52;102882.63;5192427;28;20436;-51
2022/05/08 01:34:49;;;;;;;29.08;7.35;;;;;;;10.79;59.53;102886.31;5187345;28;20461;-49
2022/05/08 01:37:23;;;;;;;37.17;8.73;;;;;;;10.76;59.64;102872.44;5189967;28;20488;-54
2022/05/08 01:39:57;;;;;;;26.83;6.97;;;;;;;10.69;59.66;102869.38;5194403;28;20772;-50
2022/05/08 01:42:30;;;;;;;39.08;7.78;;;;;;;10.67;59.87;102873.06;5185933;28;20438;-46
2022/05/08 01:45:02;;;;;;;31.73;7.10;;;;;;;10.62;59.70;102868.06;5183866;28;20413;-46
2022/05/08 01:50:26;;;;;;;34.42;8.35;;;;;;;10.60;59.76;102883.19;5195089;28;20409;-49
2022/05/08 01:53:00;;;;;;;31.20;7.50;;;;;;;10.52;59.79;102875.72;5185992;28;20460;-46
2022/05/08 01:55:33;;;;;;;29.92;6.07;;;;;;;10.39;59.52;102853.72;5189374;28;21809;-46
2022/05/08 01:58:06;;;;;;;30.83;7.37;;;;;;;10.63;59.54;102904.13;5192218;28;21036;-50
2022/05/08 02:00:41;;;;;;;26.90;6.72;;;;;;;10.64;59.65;102891.75;5189405;28;20895;-50
2022/05/08 02:03:14;;;;;;;31.98;6.13;;;;;;;10.63;59.66;102890.91;5191108;28;20428;-46
2022/05/08 02:05:47;;;;;;;23.92;7.55;;;;;;;10.53;59.85;102877.44;5209669;28;20423;-49
2022/05/08 02:08:21;;;;;;;27.90;7.28;;;;;;;10.38;59.80;102857.31;5211381;28;20867;-49
2022/05/08 02:10:54;;;;;;;31.92;7.78;;;;;;;10.48;59.59;102874.25;5219184;28;20407;-48
2022/05/08 02:13:28;;;;;;;30.50;7.82;;;;;;;10.57;59.68;102893.94;5210455;28;20502;-48
2022/05/08 02:16:01;;;;;;;30.58;7.07;;;;;;;10.58;59.70;102901.75;5208540;28;20435;-48
2022/05/08 02:18:34;;;;;;;36.87;8.50;;;;;;;10.55;59.60;102896.66;5213428;28;20939;-48
2022/05/08 02:21:07;;;;;;;31.08;7.70;;;;;;;10.53;59.65;102898.59;5209335;28;20837;-46
2022/05/08 02:23:41;;;;;;;36.78;7.93;;;;;;;10.46;59.89;102891.97;5206108;28;20485;-47
2022/05/08 02:26:13;;;;;;;29.30;7.30;;;;;;;10.47;59.74;102892.84;5219568;28;20429;-48
2022/05/08 02:28:45;;;;;;;31.92;8.27;;;;;;;10.47;59.74;102893.69;5217318;28;20421;-46
2022/05/08 02:31:18;;;;;;;35.85;7.07;;;;;;;10.43;59.95;102886.06;5205785;28;21987;-48
2022/05/08 02:33:50;;;;;;;23.63;6.72;;;;;;;10.40;59.75;102887.09;5211375;28;20432;-46
2022/05/08 02:36:23;;;;;;;32.78;6.95;;;;;;;10.43;59.94;102892.19;5211892;28;20434;-51
2022/05/08 02:38:59;;;;;;;33.17;7.50;;;;;;;10.28;59.88;102864.09;5212169;28;20584;-47
2022/05/08 02:41:31;;;;;;;31.67;7.05;;;;;;;10.28;59.94;102869.38;5207221;28;20409;-46
2022/05/08 02:44:05;;;;;;;29.45;7.45;;;;;;;10.48;59.72;102895.38;5205091;28;20484;-51
2022/05/08 02:46:37;;;;;;;33.05;7.90;;;;;;;10.48;59.71;102890.09;5216328;28;20507;-47
2022/05/08 02:49:10;;;;;;;40.40;7.75;;;;;;;10.38;59.85;102873.16;5213910;28;20408;-46
2022/05/08 02:51:42;;;;;;;36.08;8.02;;;;;;;10.46;59.75;102885.84;5212363;28;20461;-46
2022/05/08 02:54:16;;;;;;;31.80;8.40;;;;;;;10.47;59.76;102898.97;5215948;28;20492;-47
2022/05/08 02:59:39;;;;;;;29.35;7.50;;;;;;;10.38;59.81;102878.44;5212875;28;20901;-50
2022/05/08 03:02:11;;;;;;;36.03;8.25;;;;;;;10.34;60.01;102874.28;5216815;28;20486;-52
2022/05/08 03:04:45;;;;;;;28.53;7.93;;;;;;;10.26;59.91;102873.91;5179677;28;20429;-46
2022/05/08 03:07:18;;;;;;;26.35;7.25;;;;;;;10.42;59.99;102901.06;5180795;28;20504;-46
2022/05/08 03:09:51;;;;;;;31.77;7.72;;;;;;;10.45;59.91;102907.94;5193072;28;20405;-45
2022/05/08 03:12:24;;;;;;;43.30;8.75;;;;;;;10.42;60.03;102906.34;5189376;28;20998;-48
2022/05/08 03:14:57;;;;;;;34.90;8.68;;;;;;;10.33;60.04;102893.72;5194194;28;20937;-48
2022/05/08 03:17:29;;;;;;;31.38;8.38;;;;;;;10.39;60.18;102911.81;5196426;28;20417;-41
2022/05/08 03:20:02;;;;;;;26.08;7.75;;;;;;;10.41;60.02;102902.00;5188334;28;20828;-50
2022/05/08 03:22:34;;;;;;;23.45;7.28;;;;;;;10.43;60.10;102901.91;5184429;28;20419;-51
2022/05/08 03:25:09;;;;;;;34.97;8.03;;;;;;;10.41;60.08;102907.31;5198298;28;20483;-48
2022/05/08 03:27:42;;;;;;;39.73;9.13;;;;;;;10.39;60.01;102904.75;5184149;28;20788;-48
2022/05/08 03:30:15;;;;;;;30.13;7.90;;;;;;;10.39;60.06;102906.53;5191684;28;20447;-48
2022/05/08 03:32:47;;;;;;;23.27;8.27;;;;;;;10.37;60.01;102903.13;5181110;28;20545;-47
2022/05/08 03:35:20;;;;;;;33.53;9.20;;;;;;;10.32;60.05;102902.59;5190009;28;20475;-48
2022/05/08 03:37:52;;;;;;;28.50;8.07;;;;;;;10.28;60.05;102898.44;5186046;28;20488;-48
2022/05/08 03:40:27;;;;;;;37.10;8.88;;;;;;;10.00;60.08;102847.34;5185721;28;20497;-49
2022/05/08 03:43:00;;;;;;;30.30;7.43;;;;;;;10.41;59.93;102914.38;5182047;28;20419;-47
2022/05/08 03:45:32;;;;;;;33.53;7.60;;;;;;;10.42;60.16;102916.91;5195730;28;20529;-48
2022/05/08 03:48:06;;;;;;;33.00;8.23;;;;;;;10.35;60.07;102910.34;5199963;28;20440;-48
2022/05/08 03:50:41;;;;;;;25.67;8.05;;;;;;;10.38;60.13;102915.41;5186060;28;20517;-50
2022/05/08 03:53:15;;;;;;;29.13;6.93;;;;;;;10.34;60.14;102909.50;5189819;28;20493;-45
2022/05/08 03:55:50;;;;;;;28.58;6.88;;;;;;;10.39;60.22;102914.47;5187111;28;20436;-48
2022/05/08 03:58:22;;;;;;;30.00;7.88;;;;;;;10.43;60.02;102923.88;5190562;28;20913;-47
2022/05/08 04:00:55;;;;;;;35.35;7.57;;;;;;;10.33;60.18;102912.22;5188532;28;20406;-48
2022/05/08 04:03:27;;;;;;;35.80;7.63;;;;;;;10.13;60.15;102879.13;5195679;28;20414;-46
2022/05/08 04:06:00;;;;;;;34.13;7.47;;;;;;;10.34;60.23;102925.34;5176265;28;20471;-45
2022/05/08 04:08:33;;;;;;;44.42;7.85;;;;;;;10.35;60.41;102926.19;5187286;28;20493;-47
2022/05/08 04:11:07;;;;;;;26.10;6.88;;;;;;;10.36;60.32;102923.41;5192260;28;20418;-51
2022/05/08 04:13:39;;;;;;;33.05;7.30;;;;;;;10.32;60.30;102921.09;5196475;28;20505;-45
2022/05/08 04:16:18;;;;;;;30.70;7.78;;;;;;;10.34;60.35;102914.78;5187976;28;20470;-50
2022/05/08 04:18:51;;;;;;;27.95;6.95;;;;;;;10.38;60.24;102920.69;5184024;28;20822;-55
2022/05/08 04:21:23;;;;;;;28.73;7.00;;;;;;;10.38;60.24;102925.97;5192059;28;20893;-56
2022/05/08 04:26:50;;;;;;;27.52;7.22;;;;;;;10.40;60.11;102924.06;5183779;28;20425;-49
2022/05/08 04:29:23;;;;;;;32.10;7.47;;;;;;;10.08;60.24;102876.75;5196928;28;20412;-48
2022/05/08 04:31:55;;;;;;;36.25;8.05;;;;;;;10.38;60.10;102920.69;5184210;28;20429;-47
2022/05/08 04:34:28;;;;;;;33.53;7.53;;;;;;;10.41;60.16;102936.34;5190607;28;20409;-49
2022/05/08 04:37:01;;;;;;;25.50;7.05;;;;;;;10.34;60.25;102921.81;5188141;28;20422;-46
2022/05/08 04:39:33;;;;;;;31.85;7.82;;;;;;;10.42;60.15;102924.00;5175662;28;20423;-46
2022/05/08 04:42:08;;;;;;;27.23;7.35;;;;;;;10.48;59.92;102927.09;5186949;28;20426;-47
2022/05/08 04:44:41;;;;;;;28.10;8.15;;;;;;;10.56;60.07;102945.94;5189196;28;20490;-48
2022/05/08 04:47:13;;;;;;;27.95;6.47;;;;;;;10.55;60.11;102944.22;5183428;28;20434;-48
2022/05/08 04:49:45;;;;;;;25.85;7.45;;;;;;;10.56;60.16;102943.31;5190086;28;20421;-49
2022/05/08 04:52:18;;;;;;;31.63;7.38;;;;;;;10.58;59.99;102949.31;5185294;28;20423;-52
2022/05/08 04:54:50;;;;;;;29.83;7.50;;;;;;;10.57;60.02;102942.34;5180622;28;20460;-52
2022/05/08 04:57:24;;;;;;;29.47;7.87;;;;;;;10.63;59.99;102951.69;5183418;28;20419;-47
2022/05/08 04:59:57;;;;;;;28.85;6.82;;;;;;;10.65;60.09;102948.94;5180716;28;20880;-50
2022/05/08 05:02:30;;;;;;;32.22;6.93;;;;;;;10.81;59.82;102954.94;5178893;28;20767;-46
2022/05/08 05:05:10;;;;;;;28.55;6.30;;;;;;;10.85;59.83;102951.13;5180040;28;20421;-47
2022/05/08 05:07:45;;;;;;;21.63;6.00;;;;;;;10.84;59.81;102938.88;5174091;28;20427;-52
2022/05/08 05:10:17;;;;;;;26.20;6.85;;;;;;;10.94;59.66;102953.19;5183460;28;20874;-50
2022/05/08 05:12:53;;;;;;;34.22;6.43;;;;;;;10.99;59.70;102959.00;5182111;28;20496;-51
2022/05/08 05:15:25;;;;;;;29.05;5.80;;;;;;;11.02;59.62;102958.81;5183348;28;20902;-50
2022/05/08 05:18:01;;;;;;;24.15;6.20;;;;;;;10.79;59.50;102915.38;5180620;28;20415;-49
2022/05/08 05:20:33;;;;;;;26.80;6.60;;;;;;;11.14;59.57;102964.25;5180878;28;20423;-48
2022/05/08 05:23:06;;;;;;;30.77;5.83;;;;;;;11.11;59.52;102943.28;5182519;28;20626;-47
2022/05/08 05:25:39;;;;;;;22.85;5.60;;;;;;;11.10;59.45;102944.25;5182037;28;20442;-49
2022/05/08 05:28:13;;;;;;;28.63;5.78;;;;;;;11.21;59.79;102953.16;5182180;28;20453;-46
2022/05/08 05:30:45;;;;;;;29.05;5.88;;;;;;;11.32;59.28;102960.38;5181948;28;20998;-49
2022/05/08 05:33:19;;;;;;;24.63;5.93;;;;;;;11.47;59.21;102969.94;5182200;28;20519;-46
2022/05/08 05:35:52;;;;;;;18.85;5.57;;;;;;;11.65;58.90;102974.94;5183570;28;20763;-51
2022/05/08 05:38:24;;;;;;;21.17;5.32;;;;;;;11.88;58.58;102974.22;5181985;28;20990;-49
2022/05/08 05:40:57;;;;;;;19.23;4.93;;;;;;;12.40;57.85;102949.38;5181673;28;20446;-50
2022/05/08 05:43:31;;;;;;;19.42;5.03;;;;;;;13.99;56.54;102981.69;5180399;28;20403;-48
2022/05/08 05:48:54;;;;;;;18.85;4.28;;;;;;;16.48;54.20;102977.03;5179654;28;20508;-50
2022/05/08 05:51:28;;;;;;;16.00;3.97;;;;;;;17.39;53.03;102965.16;5179725;28;20423;-51
2022/05/08 05:54:00;;;;;;;19.50;5.07;;;;;;;18.54;51.86;102975.59;5179320;28;20832;-53
2022/05/08 05:56:33;;;;;;;15.80;4.07;;;;;;;19.56;50.36;102993.13;5182068;28;20989;-49
2022/05/08 05:59:07;;;;;;;17.25;4.30;;;;;;;20.23;49.32;102982.63;5179531;28;20506;-50
2022/05/08 06:01:39;;;;;;;16.45;4.28;;;;;;;20.87;48.19;102957.00;5173180;28;20445;-52
2022/05/08 06:04:12;;;;;;;13.20;3.85;;;;;;;21.41;47.01;102972.63;5182733;28;20446;-53
2022/05/08 06:06:45;;;;;;;15.30;3.88;;;;;;;21.98;46.39;102969.78;5188611;28;20555;-55
2022/05/08 06:09:17;;;;;;;17.95;3.58;;;;;;;21.91;46.22;102984.97;5153503;28;20494;-54
2022/05/08 06:11:50;;;;;;;15.73;3.78;;;;;;;22.13;45.29;102977.16;5196849;28;20431;-52
2022/05/08 06:14:24;;;;;;;14.52;3.25;;;;;;;22.94;44.18;102982.13;5174519;28;20546;-54
2022/05/08 06:16:56;;;;;;;14.00;3.78;;;;;;;23.54;43.23;102995.78;5176351;28;20406;-54
2022/05/08 06:19:31;;;;;;;17.08;3.60;;;;;;;23.98;42.31;102992.31;5179550;28;20427;-55
2022/05/08 06:22:04;;;;;;;13.68;3.30;;;;;;;24.38;41.65;102999.88;5182349;28;20427;-54
2022/05/08 06:24:37;;;;;;;16.15;3.40;;;;;;;24.93;40.58;103003.03;5181314;28;20630;-53
2022/05/08 06:27:10;;;;;;;18.08;3.10;;;;;;;24.23;40.52;102923.47;5185078;28;20433;-53
2022/05/08 06:29:45;;;;;;;11.65;2.92;;;;;;;24.51;40.22;103017.31;5126550;28;20425;-52
2022/05/08 06:32:17;;;;;;;14.23;3.63;;;;;;;24.52;40.00;103013.56;5170524;28;20421;-55
2022/05/08 06:34:50;;;;;;;13.20;3.10;;;;;;;24.43;39.62;103001.19;5170538;28;20487;-54
2022/05/08 06:37:22;;;;;;;14.75;3.33;;;;;;;25.24;38.54;103008.13;5158694;28;20417;-53
2022/05/08 06:39:55;;;;;;;12.30;3.33;;;;;;;26.05;37.48;103010.34;5196501;28;20408;-51
2022/05/08 06:42:28;;;;;;;10.90;2.80;;;;;;;26.42;36.81;103009.06;5180487;28;20413;-55
2022/05/08 06:45:02;;;;;;;12.45;2.83;;;;;;;25.99;36.89;103016.56;5171273;28;20846;-53
2022/05/08 06:47:35;;;;;;;14.60;3.23;;;;;;;26.19;36.58;103009.38;5146200;28;21022;-51
2022/05/08 06:50:08;;;;;;;8.85;2.72;;;;;;;26.35;36.06;103010.06;5167867;28;20455;-55
2022/05/08 06:52:41;;;;;;;13.40;3.00;;;;;;;26.26;35.76;103022.09;5170711;28;20912;-53
2022/05/08 06:55:14;;;;;;;13.50;3.42;;;;;;;25.35;36.27;103019.44;5187401;28;20418;-54
2022/05/08 06:57:47;;;;;;;12.15;2.58;;;;;;;24.55;36.73;103018.59;5196445;28;20428;-54
2022/05/08 07:03:12;;;;;;;11.93;3.25;;;;;;;25.08;35.91;103035.38;5190193;28;20421;-55
2022/05/08 07:05:45;;;;;;;11.98;2.78;;;;;;;25.11;35.62;103026.88;5170279;28;20442;-51
2022/05/08 07:08:19;;;;;;;15.55;3.15;;;;;;;24.02;36.00;102950.41;5188771;28;20471;-54
2022/05/08 07:10:51;;;;;;;10.13;3.20;;;;;;;24.41;36.02;103028.38;5189055;28;22898;-55
2022/05/08 07:13:26;;;;;;;10.25;2.70;;;;;;;24.62;35.96;103041.13;5212418;28;20542;-57
2022/05/08 07:16:00;;;;;;;9.20;2.90;;;;;;;24.34;35.80;103039.09;5200078;28;21023;-57
2022/05/08 07:18:34;;;;;;;10.03;2.47;;;;;;;23.84;36.16;103010.16;5198608;28;20493;-57
2022/05/08 07:21:07;;;;;;;9.23;2.78;;;;;;;23.33;36.35;103032.38;5167015;28;20513;-54
2022/05/08 07:23:39;;;;;;;11.35;2.63;;;;;;;22.86;36.54;103027.13;5198728;28;20436;-53
2022/05/08 07:26:12;;;;;;;11.45;2.60;;;;;;;22.59;36.82;103004.22;5157216;28;20506;-55
2022/05/08 07:28:44;;;;;;;13.43;3.33;;;;;;;22.96;36.40;103012.44;5175723;28;20426;-55
2022/05/08 07:31:18;;;;;;;13.63;2.95;;;;;;;22.72;36.54;103031.41;5187547;28;20483;-53
2022/05/08 07:36:12;;;;;;;10.73;2.50;;;;;;;21.87;37.27;103038.28;5198817;28;20420;-54
2022/05/08 07:36:43;;;;;;;9.27;2.65;;;;;;;21.88;37.01;103039.94;5194183;28;20552;-55
2022/05/08 07:39:16;;;;;;;13.30;3.47;;;;;;;22.04;36.74;103046.31;5192605;28;20509;-52
2022/05/08 07:41:49;;;;;;;9.13;2.05;;;;;;;21.53;37.14;103035.81;5176135;28;20447;-53
2022/05/08 07:44:21;;;;;;;12.43;2.45;;;;;;;21.79;36.82;103018.63;5191962;28;20398;-53
2022/05/08 07:46:55;;;;;;;9.57;2.58;;;;;;;21.54;36.92;103017.81;5200051;28;20420;-55
2022/05/08 07:49:28;;;;;;;12.50;2.90;;;;;;;21.52;36.95;103023.34;5200430;28;20503;-53
2022/05/08 07:52:00;;;;;;;11.45;2.78;;;;;;;21.51;36.73;103037.81;5179922;28;20481;-51
2022/05/08 07:54:33;;;;;;;9.53;2.00;;;;;;;21.07;36.86;103016.59;5157717;28;20579;-52
2022/05/08 07:57:06;;;;;;;5.20;1.67;;;;;;;20.25;37.30;102969.88;5197812;28;20773;-50
2022/05/08 07:59:38;;;;;;;11.98;2.90;;;;;;;20.56;37.36;103048.03;5191764;28;20487;-53
2022/05/08 08:02:12;;;;;;;7.57;2.35;;;;;;;20.18;37.73;103052.03;5186445;28;20504;-52
2022/05/08 08:04:45;;;;;;;13.23;2.45;;;;;;;19.77;38.03;103068.69;5194247;28;20927;-53
2022/05/08 08:07:18;;;;;;;10.10;3.22;;;;;;;19.45;38.22;103060.34;5186028;28;20532;-54
2022/05/08 08:09:50;;;;;;;9.52;2.20;;;;;;;19.65;38.13;103059.22;5159389;28;20543;-54
2022/05/08 08:12:23;;;;;;;8.60;2.28;;;;;;;19.90;38.00;103038.78;5198582;28;20505;-50
2022/05/08 08:14:55;;;;;;;13.50;2.53;;;;;;;20.52;37.48;103061.94;5201732;28;20405;-51
2022/05/08 08:17:31;;;;;;;6.27;1.70;;;;;;;20.58;37.35;103056.78;5204203;28;20410;-52
2022/05/08 08:20:06;;;;;;;8.30;1.65;;;;;;;20.37;37.61;103033.00;5186441;28;20418;-51
2022/05/08 08:22:39;;;;;;;8.10;2.05;;;;;;;20.49;37.35;103044.28;5169545;28;20455;-56
2022/05/08 08:25:12;;;;;;;10.40;2.58;;;;;;;20.44;37.71;103043.91;5203457;28;20513;-53
2022/05/08 08:27:44;;;;;;;13.55;2.22;;;;;;;20.47;37.63;103060.56;5204954;28;20948;-54
2022/05/08 08:30:17;;;;;;;10.23;2.15;;;;;;;19.79;38.13;103042.59;5167993;28;20413;-52
2022/05/08 08:32:51;;;;;;;6.55;2.25;;;;;;;19.29;38.65;103053.88;5184379;28;20430;-54
2022/05/08 08:35:24;;;;;;;8.40;2.30;;;;;;;19.06;38.72;103052.63;5192646;28;20735;-53
2022/05/08 08:37:57;;;;;;;8.10;1.73;;;;;;;19.01;38.60;103050.41;5191599;28;20413;-50
2022/05/08 08:40:30;;;;;;;8.07;1.70;;;;;;;19.17;38.39;103047.06;5188503;28;20455;-52
2022/05/08 08:43:04;;;;;;;8.88;2.60;;;;;;;18.75;38.61;103071.72;5201625;28;20488;-52
2022/05/08 08:48:32;;;;;;;7.37;2.23;;;;;;;18.70;38.36;103062.41;5204013;28;20886;-52
2022/05/08 08:51:05;;;;;;;7.75;1.70;;;;;;;18.63;38.38;103064.84;5190119;28;20525;-52
2022/05/08 08:53:37;;;;;;;6.18;1.70;;;;;;;18.40;38.57;103067.91;5204344;28;20420;-52
2022/05/08 08:56:13;;;;;;;8.30;2.00;;;;;;;18.17;38.62;103058.53;5181853;28;20471;-51
2022/05/08 08:58:45;;;;;;;10.65;1.98;;;;;;;17.87;38.59;103015.03;5187406;28;20597;-53
2022/05/08 09:01:18;;;;;;;14.55;3.28;;;;;;;18.21;38.47;103057.28;5202900;28;20503;-53
2022/05/08 09:03:57;;;;;;;9.88;3.95;;;;;;;18.29;38.33;103049.34;5203059;28;22438;-52
2022/05/08 09:06:40;;;;;;;9.63;2.70;;;;;;;18.26;38.18;103075.56;5183975;28;20414;-47
2022/05/08 09:09:27;;;;;;;9.48;2.22;;;;;;;18.31;38.42;103059.91;5186395;28;20409;-49
2022/05/08 09:12:01;;;;;;;6.38;1.70;;;;;;;18.40;38.01;103061.72;5183612;28;20446;-46
2022/05/08 09:14:37;;;;;;;8.07;1.70;;;;;;;18.49;37.90;103050.13;5185886;28;20448;-53
2022/05/08 09:17:09;;;;;;;9.10;2.15;;;;;;;18.38;38.03;103045.78;5186391;28;20481;-52
2022/05/08 09:19:44;;;;;;;11.38;2.60;;;;;;;18.74;37.86;103058.50;5191884;28;20449;-49
2022/05/08 09:22:20;;;;;;;7.25;2.42;;;;;;;19.02;37.57;103057.47;5182213;28;20466;-50
2022/05/08 09:24:54;;;;;;;5.33;1.87;;;;;;;19.10;37.43;103054.00;5182553;28;20462;-51
2022/05/08 09:27:27;;;;;;;7.45;1.83;;;;;;;19.06;37.37;103058.00;5169676;28;20427;-49
2022/05/08 09:30:09;;;;;;;7.60;1.95;;;;;;;19.38;37.19;103051.25;5189615;28;20409;-49
2022/05/08 09:32:42;;;;;;;6.00;2.28;;;;;;;19.28;37.37;103052.19;5186929;28;20455;-49
2022/05/08 09:35:16;;;;;;;11.13;2.92;;;;;;;19.13;37.38;103053.69;5190817;28;20878;-54
2022/05/08 09:37:56;;;;;;;7.70;2.33;;;;;;;18.95;37.59;103060.88;5190362;28;20660;-52
2022/05/08 09:40:28;;;;;;;7.68;3.20;;;;;;;18.72;37.80;103055.91;5191058;28;20512;-52
2022/05/08 09:43:01;;;;;;;8.60;2.28;;;;;;;18.34;38.34;103063.16;5188922;28;21176;-51
2022/05/08 09:45:34;;;;;;;9.65;2.33;;;;;;;18.01;38.27;103026.25;5187878;28;20413;-50
2022/05/08 09:48:08;;;;;;;7.70;2.63;;;;;;;18.34;38.11;103052.44;5187062;28;20405;-51
2022/05/08 09:50:42;;;;;;;7.72;2.47;;;;;;;18.48;37.88;103058.28;5189744;28;20422;-52
2022/05/08 09:53:18;;;;;;;8.60;2.85;;;;;;;18.34;37.99;103056.97;5189248;28;20518;-51
2022/05/08 09:55:52;;;;;;;5.55;2.25;;;;;;;18.40;38.00;103059.88;5189998;28;20474;-51
2022/05/08 09:58:25;;;;;;;11.37;2.30;;;;;;;18.44;38.11;103058.59;5185343;28;20415;-52
2022/05/08 10:00:58;;;;;;;6.60;1.90;;;;;;;18.43;37.88;103069.44;5192648;28;20402;-52
2022/05/08 10:03:31;;;;;;;9.53;2.27;;;;;;;18.49;37.96;103059.97;5187010;28;20470;-51
2022/05/08 10:06:06;;;;;;;7.38;2.70;;;;;;;18.29;38.14;103057.38;5186257;28;20436;-53
2022/05/08 10:08:39;;;;;;;5.82;1.70;;;;;;;18.16;38.32;103043.50;5201543;28;20405;-55
2022/05/08 10:14:11;;;;;;;6.85;2.10;;;;;;;18.55;37.80;103048.66;5182936;28;20795;-55
2022/05/08 10:16:51;;;;;;;10.13;2.08;;;;;;;18.51;37.95;103047.28;5184863;28;20598;-50
2022/05/08 10:19:51;;;;;;;6.95;2.08;;;;;;;18.41;38.15;103047.34;5183319;28;20915;-49
2022/05/08 10:22:25;;;;;;;9.80;2.50;;;;;;;18.44;38.14;103047.03;5135536;28;20413;-50
2022/05/08 10:25:15;;;;;;;8.02;2.20;;;;;;;18.51;38.08;103052.63;5185701;28;20415;-54
2022/05/08 10:28:06;;;;;;;11.40;3.20;;;;;;;18.44;38.04;103041.69;5173747;28;20422;-54
2022/05/08 10:30:40;;;;;;;8.90;2.57;;;;;;;18.30;38.12;103045.72;5178262;28;20871;-55
2022/05/08 10:33:12;;;;;;;9.27;2.38;;;;;;;18.71;37.73;103042.69;5182839;28;20506;-52
2022/05/08 10:36:08;;;;;;;7.07;1.80;;;;;;;19.09;37.29;103046.97;5185772;28;20427;-50
2022/05/08 10:38:42;;;;;;;10.55;2.30;;;;;;;19.04;37.06;103043.91;5181931;28;20419;-51
2022/05/08 10:41:43;;;;;;;8.95;2.17;;;;;;;19.10;37.11;103017.34;5184720;28;20415;-53
2022/05/08 10:44:43;;;;;;;6.28;2.40;;;;;;;19.50;36.73;103042.81;5180489;28;20514;-49
2022/05/08 10:47:43;;;;;;;9.38;2.38;;;;;;;19.18;37.00;103046.06;5146615;28;20883;-49
2022/05/08 10:50:16;;;;;;;8.35;2.65;;;;;;;18.73;37.24;103009.44;5179649;28;20415;-53
2022/05/08 10:52:50;;;;;;;6.63;1.98;;;;;;;18.39;37.65;103038.59;5183238;28;20830;-50
2022/05/08 10:55:26;;;;;;;10.20;2.27;;;;;;;18.08;37.90;103003.25;5179517;28;20442;-53
2022/05/08 10:58:01;;;;;;;7.03;2.72;;;;;;;18.09;37.95;103039.72;5179788;28;20848;-50
2022/05/08 11:00:33;;;;;;;9.90;2.55;;;;;;;18.00;38.06;103043.28;5178383;28;20501;-53
2022/05/08 11:03:06;;;;;;;8.35;2.78;;;;;;;18.04;37.62;103016.09;5181756;28;20849;-52
2022/05/08 11:06:06;;;;;;;10.18;2.75;;;;;;;18.20;37.62;103036.84;5183023;28;20427;-50
2022/05/08 11:08:39;;;;;;;5.25;2.13;;;;;;;18.21;37.61;103041.25;5180747;28;20516;-52
2022/05/08 11:11:14;;;;;;;12.38;3.30;;;;;;;18.20;37.70;103039.53;5183670;28;20514;-50
2022/05/08 11:13:48;;;;;;;16.42;4.18;;;;;;;18.27;37.65;103056.72;5180421;28;20548;-50
2022/05/08 11:16:37;;;;;;;9.38;2.17;;;;;;;18.40;37.61;103035.81;5181541;28;20470;-51
2022/05/08 11:19:09;;;;;;;10.32;2.92;;;;;;;18.16;37.91;103041.66;5181575;28;20411;-51
2022/05/08 11:21:42;;;;;;;8.88;2.30;;;;;;;18.44;37.65;103042.53;5178397;28;20419;-51
2022/05/08 11:24:24;;;;;;;7.05;2.70;;;;;;;18.54;37.25;103041.66;5181775;28;20446;-52
2022/05/08 11:26:58;;;;;;;11.18;2.55;;;;;;;18.64;37.17;103034.41;5183285;28;20407;-51
2022/05/08 11:29:31;;;;;;;9.32;2.63;;;;;;;18.28;37.32;102994.19;5177382;28;20459;-47
2022/05/08 11:38:01;;;;;;;11.48;2.55;;;;;;;17.97;37.70;103034.56;5184669;28;20411;-53
2022/05/08 11:40:35;;;;;;;9.45;2.42;;;;;;;17.72;38.04;103035.16;5181133;28;20415;-50
2022/05/08 11:43:08;;;;;;;5.85;2.30;;;;;;;17.60;38.24;103025.59;5172769;28;20506;-50
2022/05/08 11:45:59;;;;;;;8.95;2.58;;;;;;;17.67;38.17;103032.03;5140759;28;20528;-48
2022/05/08 11:48:36;;;;;;;10.85;3.13;;;;;;;17.73;37.71;102988.72;5178375;28;20822;-51
2022/05/08 11:51:10;;;;;;;9.73;2.83;;;;;;;18.16;37.25;103003.38;5176777;28;20415;-53
2022/05/08 11:53:49;;;;;;;8.73;2.83;;;;;;;18.38;37.68;103027.06;5177942;28;20430;-48
2022/05/08 11:56:27;;;;;;;11.77;3.17;;;;;;;17.97;37.69;103013.16;5175955;28;20411;-46
2022/05/08 11:59:04;;;;;;;7.53;2.63;;;;;;;17.64;37.91;103000.25;5168914;28;20416;-50
2022/05/08 12:01:37;;;;;;;9.67;2.50;;;;;;;17.79;37.76;102996.19;5177810;28;20481;-51
2022/05/08 12:04:26;;;;;;;8.43;2.85;;;;;;;18.19;37.47;103005.75;5181665;28;20459;-46
2022/05/08 12:07:05;;;;;;;11.17;2.60;;;;;;;18.27;37.38;103013.91;5187073;28;20422;-51
2022/05/08 12:09:41;;;;;;;11.30;2.25;;;;;;;18.57;37.09;102995.84;5183344;28;20480;-50
2022/05/08 12:12:26;;;;;;;11.40;2.70;;;;;;;18.90;36.71;102999.75;5177823;28;20776;-54
2022/05/08 12:15:03;;;;;;;11.15;2.90;;;;;;;18.79;36.56;103008.00;5184690;28;20882;-52
2022/05/08 12:17:58;;;;;;;10.63;2.53;;;;;;;18.65;37.05;103001.31;5193260;28;20479;-47
2022/05/08 12:20:36;;;;;;;10.88;3.20;;;;;;;18.56;36.94;102970.94;5192451;28;20830;-47